createdAt,value
2023-05-01T00:01:09.684Z,8.83
2023-05-01T00:03:37.884Z,8.90
2023-05-01T00:06:08.001Z,8.97
2023-05-01T00:08:35.848Z,8.78
2023-05-01T00:11:04.341Z,8.59
2023-05-01T00:13:32.167Z,8.83
2023-05-01T00:15:59.942Z,8.61
2023-05-01T00:18:27.746Z,8.16
2023-05-01T00:20:55.626Z,8.41
2023-05-01T00:23:24.716Z,8.95
2023-05-01T00:25:52.442Z,8.62
2023-05-01T00:28:20.230Z,8.81
2023-05-01T00:30:47.994Z,8.68
2023-05-01T00:33:16.264Z,8.83
2023-05-01T00:35:45.217Z,8.51
2023-05-01T00:38:13.270Z,8.64
2023-05-01T00:40:45.302Z,8.72
2023-05-01T00:43:13.542Z,8.18
2023-05-01T00:45:44.372Z,8.28
2023-05-01T00:48:12.300Z,8.17
2023-05-01T00:50:40.422Z,8.48
2023-05-01T00:53:08.192Z,8.27
2023-05-01T00:55:36.868Z,8.19
2023-05-01T00:58:06.129Z,8.29
2023-05-01T01:00:34.047Z,7.99
2023-05-01T01:03:02.393Z,8.45
2023-05-01T01:05:33.468Z,7.86
2023-05-01T01:08:10.783Z,7.33
2023-05-01T01:10:47.284Z,7.40
2023-05-01T01:13:22.755Z,7.46
2023-05-01T01:15:58.234Z,7.28
2023-05-01T01:18:34.015Z,7.57
2023-05-01T01:21:09.423Z,6.98
2023-05-01T01:24:09.857Z,7.98
2023-05-01T01:27:20.469Z,8.01
2023-05-01T01:30:24.632Z,7.65
2023-05-01T01:33:10.300Z,7.11
2023-05-01T01:35:44.052Z,7.27
2023-05-01T01:38:18.303Z,7.10
2023-05-01T01:40:54.778Z,7.68
2023-05-01T01:43:23.887Z,7.31
2023-05-01T01:45:58.990Z,7.77
2023-05-01T01:48:32.013Z,7.86
2023-05-01T01:51:04.922Z,7.29
2023-05-01T01:53:34.286Z,7.57
2023-05-01T01:56:06.235Z,7.67
2023-05-01T01:58:36.126Z,7.57
2023-05-01T02:01:06.295Z,7.18
2023-05-01T02:03:34.641Z,6.78
2023-05-01T02:06:06.279Z,6.85
2023-05-01T02:08:37.151Z,6.94
2023-05-01T02:11:06.166Z,7.02
2023-05-01T02:13:34.983Z,6.95
2023-05-01T02:16:04.382Z,7.53
2023-05-01T02:18:32.634Z,7.32
2023-05-01T02:21:01.985Z,7.59
2023-05-01T02:23:33.549Z,7.65
2023-05-01T02:26:05.149Z,7.73
2023-05-01T02:28:35.205Z,7.59
2023-05-01T02:31:02.986Z,7.67
2023-05-01T02:33:30.748Z,7.71
2023-05-01T02:35:58.475Z,6.96
2023-05-01T02:38:26.832Z,6.66
2023-05-01T02:40:59.164Z,6.77
2023-05-01T02:43:29.477Z,6.94
2023-05-01T02:45:59.114Z,6.87
2023-05-01T02:48:29.153Z,6.72
2023-05-01T02:50:58.198Z,6.81
2023-05-01T02:53:25.899Z,6.75
2023-05-01T02:55:55.134Z,6.86
2023-05-01T02:58:23.609Z,6.66
2023-05-01T03:00:51.536Z,7.03
2023-05-01T03:03:19.424Z,6.68
2023-05-01T03:05:47.616Z,6.47
2023-05-01T03:08:15.470Z,6.28
2023-05-01T03:10:43.644Z,6.24
2023-05-01T03:13:12.951Z,6.08
2023-05-01T03:15:41.312Z,6.13
2023-05-01T03:18:09.466Z,6.45
2023-05-01T03:20:37.489Z,5.72
2023-05-01T03:23:06.442Z,5.87
2023-05-01T03:25:34.288Z,5.77
2023-05-01T03:28:02.045Z,5.97
2023-05-01T03:30:31.596Z,5.94
2023-05-01T03:32:59.421Z,5.70
2023-05-01T03:35:27.449Z,5.96
2023-05-01T03:37:55.320Z,5.81
2023-05-01T03:40:23.502Z,6.04
2023-05-01T03:42:51.217Z,5.86
2023-05-01T03:45:18.942Z,5.99
2023-05-01T03:47:48.131Z,6.11
2023-05-01T03:50:16.342Z,6.01
2023-05-01T03:52:44.167Z,6.05
2023-05-01T03:55:11.932Z,6.26
2023-05-01T03:57:39.691Z,6.36
2023-05-01T04:00:09.657Z,6.22
2023-05-01T04:02:37.569Z,6.17
2023-05-01T04:05:07.651Z,5.78
2023-05-01T04:07:35.510Z,6.23
2023-05-01T04:10:03.341Z,6.18
2023-05-01T04:12:31.083Z,6.28
2023-05-01T04:14:58.774Z,6.56
2023-05-01T04:17:26.572Z,6.39
2023-05-01T04:19:55.321Z,6.47
2023-05-01T04:22:24.619Z,6.55
2023-05-01T04:24:52.961Z,6.45
2023-05-01T04:27:20.683Z,6.61
2023-05-01T04:29:48.393Z,6.68
2023-05-01T04:32:16.558Z,6.83
2023-05-01T04:34:44.982Z,7.05
2023-05-01T04:37:12.727Z,6.93
2023-05-01T04:39:41.843Z,6.91
2023-05-01T04:42:09.622Z,7.11
2023-05-01T04:44:37.440Z,7.21
2023-05-01T04:47:06.074Z,7.37
2023-05-01T04:49:34.056Z,7.58
2023-05-01T04:52:02.056Z,7.88
2023-05-01T04:54:29.861Z,7.26
2023-05-01T04:56:58.976Z,7.33
2023-05-01T04:59:26.812Z,7.69
2023-05-01T05:01:54.697Z,7.61
2023-05-01T05:04:22.496Z,7.61
2023-05-01T05:06:50.238Z,7.94
2023-05-01T05:09:20.060Z,7.74
2023-05-01T05:11:48.200Z,7.82
2023-05-01T05:14:17.323Z,7.98
2023-05-01T05:16:45.119Z,7.86
2023-05-01T05:19:13.529Z,8.09
2023-05-01T05:21:41.236Z,8.39
2023-05-01T05:24:09.014Z,8.34
2023-05-01T05:26:36.741Z,8.74
2023-05-01T05:29:04.485Z,8.24
2023-05-01T05:31:33.726Z,8.48
2023-05-01T05:34:01.638Z,8.76
2023-05-01T05:36:30.081Z,8.69
2023-05-01T05:38:57.830Z,9.27
2023-05-01T05:41:26.993Z,9.31
2023-05-01T05:43:55.240Z,9.79
2023-05-01T05:46:23.260Z,9.80
2023-05-01T05:48:52.433Z,9.56
2023-05-01T05:51:20.429Z,9.11
2023-05-01T05:53:48.160Z,9.59
2023-05-01T05:56:15.867Z,9.73
2023-05-01T05:58:43.989Z,9.64
2023-05-01T06:01:11.791Z,9.48
2023-05-01T06:03:39.750Z,9.29
2023-05-01T06:06:09.185Z,10.11
2023-05-01T06:08:37.795Z,9.89
2023-05-01T06:11:06.289Z,10.31
2023-05-01T06:13:34.475Z,10.41
2023-05-01T06:16:02.272Z,10.65
2023-05-01T06:18:30.541Z,10.48
2023-05-01T06:20:58.341Z,10.52
2023-05-01T06:23:27.415Z,10.58
2023-05-01T06:25:55.340Z,10.50
2023-05-01T06:28:23.106Z,10.23
2023-05-01T06:30:50.974Z,10.99
2023-05-01T06:33:18.725Z,11.50
2023-05-01T06:35:46.829Z,11.56
2023-05-01T06:38:14.633Z,11.32
2023-05-01T06:40:46.975Z,11.66
2023-05-01T06:43:14.772Z,11.91
2023-05-01T06:45:42.786Z,11.82
2023-05-01T06:48:10.649Z,11.03
2023-05-01T06:50:38.562Z,12.28
2023-05-01T06:53:06.308Z,12.54
2023-05-01T06:55:35.868Z,12.68
2023-05-01T06:58:12.622Z,11.96
2023-05-01T07:00:51.426Z,12.39
2023-05-01T07:03:19.359Z,12.49
2023-05-01T07:05:47.236Z,12.25
2023-05-01T07:08:15.001Z,12.50
2023-05-01T07:10:42.793Z,12.45
2023-05-01T07:13:11.983Z,12.36
2023-05-01T07:15:39.860Z,12.71
2023-05-01T07:18:07.634Z,12.96
2023-05-01T07:20:35.563Z,12.88
2023-05-01T07:23:04.655Z,13.20
2023-05-01T07:25:33.708Z,13.15
2023-05-01T07:28:04.569Z,13.23
2023-05-01T07:30:33.771Z,13.28
2023-05-01T07:33:01.708Z,13.61
2023-05-01T07:35:29.629Z,13.65
2023-05-01T07:37:57.375Z,13.47
2023-05-01T07:40:25.269Z,13.39
2023-05-01T07:42:54.494Z,14.10
2023-05-01T07:45:22.434Z,14.03
2023-05-01T07:47:52.400Z,14.79
2023-05-01T07:50:20.264Z,14.29
2023-05-01T07:52:48.012Z,14.16
2023-05-01T07:55:16.099Z,14.41
2023-05-01T07:57:43.832Z,14.23
2023-05-01T08:00:12.812Z,14.38
2023-05-01T08:02:41.092Z,14.07
2023-05-01T08:05:11.214Z,15.00
2023-05-01T08:07:39.296Z,14.52
2023-05-01T08:10:08.291Z,14.80
2023-05-01T08:12:36.113Z,14.85
2023-05-01T08:15:04.239Z,15.20
2023-05-01T08:17:32.063Z,14.67
2023-05-01T08:20:01.480Z,15.57
2023-05-01T08:22:31.326Z,15.70
2023-05-01T08:24:59.292Z,15.71
2023-05-01T08:27:27.484Z,16.23
2023-05-01T08:29:55.437Z,16.12
2023-05-01T08:32:23.456Z,16.22
2023-05-01T08:34:51.257Z,15.66
2023-05-01T08:37:19.413Z,15.59
2023-05-01T08:39:48.617Z,15.73
2023-05-01T08:42:17.214Z,16.16
2023-05-01T08:44:46.018Z,16.14
2023-05-01T08:47:17.796Z,15.43
2023-05-01T08:49:47.234Z,15.43
2023-05-01T08:52:16.142Z,16.39
2023-05-01T08:54:45.373Z,16.53
2023-05-01T08:57:15.293Z,16.25
2023-05-01T08:59:43.097Z,16.31
2023-05-01T09:02:11.458Z,16.72
2023-05-01T09:04:41.197Z,17.09
2023-05-01T09:07:10.073Z,16.73
2023-05-01T09:09:37.942Z,17.00
2023-05-01T09:12:13.818Z,16.76
2023-05-01T09:14:43.090Z,17.12
2023-05-01T09:17:11.322Z,17.08
2023-05-01T09:19:40.563Z,17.16
2023-05-01T09:22:08.445Z,18.12
2023-05-01T09:24:36.257Z,16.64
2023-05-01T09:27:04.068Z,17.19
2023-05-01T09:29:39.302Z,17.29
2023-05-01T09:32:20.786Z,18.77
2023-05-01T09:34:49.623Z,18.05
2023-05-01T09:37:28.574Z,18.06
2023-05-01T09:40:08.594Z,17.92
2023-05-01T09:42:38.505Z,18.17
2023-05-01T09:45:08.417Z,17.39
2023-05-01T09:47:37.942Z,18.41
2023-05-01T09:50:06.617Z,18.38
2023-05-01T09:52:34.413Z,18.61
2023-05-01T09:55:15.767Z,19.26
2023-05-01T09:57:45.178Z,19.19
2023-05-01T10:00:15.748Z,19.37
2023-05-01T10:02:47.821Z,19.10
2023-05-01T10:05:16.363Z,19.87
2023-05-01T10:07:57.331Z,21.81
2023-05-01T10:10:25.210Z,20.73
2023-05-01T10:12:53.125Z,22.09
2023-05-01T10:15:26.261Z,20.15
2023-05-01T10:17:56.855Z,20.03
2023-05-01T10:20:24.701Z,20.74
2023-05-01T10:22:52.594Z,20.29
2023-05-01T10:25:22.684Z,20.52
2023-05-01T10:27:52.280Z,21.10
2023-05-01T10:30:20.924Z,21.14
2023-05-01T10:32:48.817Z,20.45
2023-05-01T10:35:22.707Z,20.61
2023-05-01T10:37:59.580Z,21.71
2023-05-01T10:40:49.879Z,22.16
2023-05-01T10:43:25.959Z,22.19
2023-05-01T10:45:54.997Z,22.76
2023-05-01T10:48:54.042Z,23.35
2023-05-01T10:51:26.518Z,22.31
2023-05-01T10:54:33.051Z,23.26
2023-05-01T10:57:02.964Z,23.29
2023-05-01T11:00:12.909Z,22.37
2023-05-01T11:02:40.727Z,22.54
2023-05-01T11:05:09.085Z,22.38
2023-05-01T11:07:38.224Z,21.40
2023-05-01T11:10:27.089Z,21.96
2023-05-01T11:12:55.248Z,22.82
2023-05-01T11:15:33.889Z,23.59
2023-05-01T11:18:02.577Z,22.02
2023-05-01T11:21:02.181Z,21.54
2023-05-01T11:23:31.315Z,22.06
2023-05-01T11:26:04.867Z,21.87
2023-05-01T11:28:33.116Z,21.40
2023-05-01T11:31:01.977Z,25.28
2023-05-01T11:33:30.080Z,22.37
2023-05-01T11:36:01.928Z,22.34
2023-05-01T11:38:31.065Z,23.71
2023-05-01T11:41:01.824Z,24.92
2023-05-01T11:43:29.738Z,23.07
2023-05-01T11:46:02.590Z,22.60
2023-05-01T11:48:32.287Z,21.69
2023-05-01T11:51:00.237Z,23.59
2023-05-01T11:53:28.873Z,22.92
2023-05-01T11:55:59.644Z,23.32
2023-05-01T11:58:38.019Z,24.90
2023-05-01T12:01:07.794Z,22.21
2023-05-01T12:03:45.825Z,22.96
2023-05-01T12:06:15.224Z,21.91
2023-05-01T12:08:45.434Z,22.85
2023-05-01T12:11:14.842Z,22.36
2023-05-01T12:13:42.850Z,22.83
2023-05-01T12:16:11.636Z,22.02
2023-05-01T12:18:39.548Z,22.64
2023-05-01T12:21:16.446Z,23.58
2023-05-01T12:23:44.201Z,22.43
2023-05-01T12:26:20.436Z,22.09
2023-05-01T12:28:56.053Z,23.66
2023-05-01T12:31:24.464Z,25.14
2023-05-01T12:33:56.743Z,24.11
2023-05-01T12:36:27.291Z,23.24
2023-05-01T12:39:03.595Z,22.62
2023-05-01T12:41:37.323Z,21.92
2023-05-01T12:44:17.809Z,21.84
2023-05-01T12:46:47.415Z,21.54
2023-05-01T12:49:18.707Z,22.00
2023-05-01T12:51:49.835Z,22.58
2023-05-01T12:54:22.070Z,21.29
2023-05-01T12:56:53.158Z,21.27
2023-05-01T12:59:22.052Z,22.21
2023-05-01T13:01:50.183Z,22.30
2023-05-01T13:04:24.423Z,22.17
2023-05-01T13:06:53.541Z,22.84
2023-05-01T13:09:21.524Z,23.16
2023-05-01T13:12:00.071Z,23.30
2023-05-01T13:14:28.003Z,22.97
2023-05-01T13:16:56.454Z,22.80
2023-05-01T13:19:28.783Z,24.59
2023-05-01T13:21:57.947Z,22.96
2023-05-01T13:24:26.077Z,24.03
2023-05-01T13:27:04.204Z,24.58
2023-05-01T13:29:33.612Z,25.15
2023-05-01T13:32:02.203Z,24.63
2023-05-01T13:34:31.820Z,24.21
2023-05-01T13:37:00.720Z,23.34
2023-05-01T13:39:28.755Z,24.95
2023-05-01T13:41:56.762Z,24.30
2023-05-01T13:44:25.912Z,26.01
2023-05-01T13:46:53.742Z,25.92
2023-05-01T13:49:22.913Z,25.88
2023-05-01T13:51:50.989Z,26.87
2023-05-01T13:54:20.369Z,26.03
2023-05-01T13:56:48.108Z,25.56
2023-05-01T13:59:16.074Z,24.67
2023-05-01T14:01:47.936Z,25.96
2023-05-01T14:04:18.156Z,26.79
2023-05-01T14:06:47.223Z,25.02
2023-05-01T14:09:18.013Z,23.92
2023-05-01T14:11:47.603Z,24.17
2023-05-01T14:14:17.155Z,23.56
2023-05-01T14:16:50.140Z,24.43
2023-05-01T14:19:19.111Z,25.00
2023-05-01T14:21:47.918Z,24.24
2023-05-01T14:24:18.265Z,25.11
2023-05-01T14:26:48.515Z,23.96
2023-05-01T14:29:24.736Z,23.70
2023-05-01T14:31:55.465Z,24.87
2023-05-01T14:34:23.519Z,25.13
2023-05-01T14:36:51.559Z,23.81
2023-05-01T14:39:20.036Z,24.58
2023-05-01T14:41:48.926Z,25.77
2023-05-01T14:44:20.463Z,26.46
2023-05-01T14:46:51.706Z,26.81
2023-05-01T14:49:22.724Z,24.71
2023-05-01T14:51:50.605Z,25.57
2023-05-01T14:54:19.175Z,26.38
2023-05-01T14:56:48.301Z,25.75
2023-05-01T14:59:16.377Z,26.72
2023-05-01T15:01:44.906Z,26.98
2023-05-01T15:04:13.185Z,26.00
2023-05-01T15:06:42.511Z,25.93
2023-05-01T15:09:10.344Z,25.70
2023-05-01T15:11:38.104Z,25.59
2023-05-01T15:14:05.926Z,25.69
2023-05-01T15:16:33.730Z,25.85
2023-05-01T15:19:01.471Z,24.60
2023-05-01T15:21:29.246Z,25.17
2023-05-01T15:23:58.349Z,25.45
2023-05-01T15:26:26.508Z,25.92
2023-05-01T15:28:54.588Z,25.47
2023-05-01T15:31:22.828Z,24.60
2023-05-01T15:33:50.804Z,23.42
2023-05-01T15:36:19.214Z,23.32
2023-05-01T15:38:48.214Z,22.35
2023-05-01T15:41:19.019Z,22.54
2023-05-01T15:43:47.150Z,23.22
2023-05-01T15:46:16.274Z,24.87
2023-05-01T15:48:44.154Z,24.33
2023-05-01T15:51:11.928Z,23.36
2023-05-01T15:53:39.654Z,23.62
2023-05-01T15:56:09.710Z,23.28
2023-05-01T15:58:38.842Z,23.11
2023-05-01T16:01:09.051Z,22.80
2023-05-01T16:03:47.282Z,22.73
2023-05-01T16:06:15.699Z,22.00
2023-05-01T16:08:43.919Z,21.91
2023-05-01T16:11:12.572Z,22.34
2023-05-01T16:13:43.390Z,20.66
2023-05-01T16:16:12.182Z,20.75
2023-05-01T16:18:42.570Z,19.66
2023-05-01T16:21:10.990Z,20.20
2023-05-01T16:23:40.171Z,19.82
2023-05-01T16:26:07.903Z,19.28
2023-05-01T16:28:35.764Z,19.28
2023-05-01T16:31:15.968Z,19.94
2023-05-01T16:33:53.824Z,19.20
2023-05-01T16:36:22.409Z,18.75
2023-05-01T16:38:50.463Z,19.51
2023-05-01T16:41:18.708Z,18.80
2023-05-01T16:43:47.368Z,18.36
2023-05-01T16:46:17.610Z,19.00
2023-05-01T16:48:45.422Z,19.02
2023-05-01T16:51:13.132Z,19.32
2023-05-01T16:53:40.861Z,19.35
2023-05-01T16:56:10.231Z,19.67
2023-05-01T16:58:38.440Z,18.78
2023-05-01T17:01:06.214Z,19.02
2023-05-01T17:03:36.882Z,18.95
2023-05-01T17:06:05.100Z,18.27
2023-05-01T17:08:32.930Z,18.22
2023-05-01T17:11:00.681Z,18.37
2023-05-01T17:13:28.417Z,18.58
2023-05-01T17:15:56.445Z,18.75
2023-05-01T17:18:24.191Z,18.61
2023-05-01T17:20:53.321Z,18.66
2023-05-01T17:23:21.113Z,18.94
2023-05-01T17:25:48.844Z,18.92
2023-05-01T17:28:16.837Z,18.75
2023-05-01T17:30:44.621Z,18.83
2023-05-01T17:33:12.378Z,18.54
2023-05-01T17:35:40.129Z,18.01
2023-05-01T17:38:09.386Z,18.30
2023-05-01T17:40:37.110Z,17.99
2023-05-01T17:43:04.873Z,17.87
2023-05-01T17:45:32.686Z,18.31
2023-05-01T17:48:01.049Z,17.95
2023-05-01T17:50:28.912Z,17.71
2023-05-01T17:52:56.995Z,18.07
2023-05-01T17:55:27.593Z,18.05
2023-05-01T17:57:55.721Z,18.23
2023-05-01T18:00:23.596Z,18.53
2023-05-01T18:02:51.407Z,17.96
2023-05-01T18:05:19.379Z,18.14
2023-05-01T18:07:47.119Z,17.79
2023-05-01T18:10:14.830Z,18.18
2023-05-01T18:12:45.735Z,18.55
2023-05-01T18:15:15.858Z,18.41
2023-05-01T18:17:47.208Z,18.52
2023-05-01T18:20:15.065Z,18.61
2023-05-01T18:22:42.796Z,18.50
2023-05-01T18:25:10.872Z,18.46
2023-05-01T18:27:41.659Z,17.88
2023-05-01T18:30:11.616Z,17.58
2023-05-01T18:32:46.798Z,17.68
2023-05-01T18:35:16.480Z,17.75
2023-05-01T18:37:44.337Z,18.19
2023-05-01T18:40:13.046Z,17.69
2023-05-01T18:42:42.179Z,17.79
2023-05-01T18:45:11.919Z,17.38
2023-05-01T18:47:39.693Z,17.60
2023-05-01T18:50:08.842Z,17.62
2023-05-01T18:52:37.242Z,17.81
2023-05-01T18:55:05.533Z,17.94
2023-05-01T18:57:33.274Z,17.35
2023-05-01T19:00:01.446Z,17.35
2023-05-01T19:02:30.853Z,17.16
2023-05-01T19:04:58.660Z,17.33
2023-05-01T19:07:26.902Z,17.18
2023-05-01T19:09:54.651Z,17.00
2023-05-01T19:12:22.391Z,17.27
2023-05-01T19:14:50.317Z,16.71
2023-05-01T19:17:18.156Z,17.12
2023-05-01T19:19:47.711Z,17.11
2023-05-01T19:22:15.521Z,16.73
2023-05-01T19:24:43.250Z,15.61
2023-05-01T19:27:11.716Z,15.97
2023-05-01T19:29:40.579Z,16.03
2023-05-01T19:32:08.497Z,15.89
2023-05-01T19:34:36.287Z,15.77
2023-05-01T19:37:05.456Z,15.73
2023-05-01T19:39:33.176Z,15.90
2023-05-01T19:42:02.104Z,16.24
2023-05-01T19:44:29.959Z,16.07
2023-05-01T19:46:57.710Z,15.59
2023-05-01T19:49:25.894Z,16.02
2023-05-01T19:51:54.268Z,15.93
2023-05-01T19:54:26.029Z,15.47
2023-05-01T19:56:53.857Z,15.61
2023-05-01T19:59:21.609Z,15.51
2023-05-01T20:01:49.488Z,15.51
2023-05-01T20:04:17.409Z,15.51
2023-05-01T20:06:45.369Z,15.77
2023-05-01T20:09:13.058Z,16.34
2023-05-01T20:11:42.142Z,15.96
2023-05-01T20:14:09.865Z,16.04
2023-05-01T20:16:37.670Z,16.09
2023-05-01T20:19:05.778Z,15.82
2023-05-01T20:21:33.654Z,15.43
2023-05-01T20:24:01.365Z,15.46
2023-05-01T20:26:29.148Z,15.82
2023-05-01T20:28:58.228Z,15.49
2023-05-01T20:31:26.089Z,15.36
2023-05-01T20:33:53.831Z,15.04
2023-05-01T20:36:22.441Z,16.06
2023-05-01T20:38:53.156Z,16.25
2023-05-01T20:41:20.965Z,16.35
2023-05-01T20:43:48.687Z,15.76
2023-05-01T20:46:18.152Z,15.91
2023-05-01T20:48:46.461Z,15.44
2023-05-01T20:51:14.477Z,15.55
2023-05-01T20:53:42.251Z,15.75
2023-05-01T20:56:10.472Z,15.14
2023-05-01T20:58:38.204Z,15.08
2023-05-01T21:01:06.632Z,15.57
2023-05-01T21:03:36.342Z,15.88
2023-05-01T21:06:04.288Z,15.43
2023-05-01T21:08:32.355Z,15.70
2023-05-01T21:11:01.892Z,15.78
2023-05-01T21:13:29.706Z,15.42
2023-05-01T21:15:57.554Z,15.53
2023-05-01T21:18:25.984Z,14.90
2023-05-01T21:20:55.342Z,14.87
2023-05-01T21:23:27.182Z,14.79
2023-05-01T21:25:55.215Z,14.92
2023-05-01T21:28:23.212Z,15.10
2023-05-01T21:30:51.748Z,15.52
2023-05-01T21:33:19.857Z,15.44
2023-05-01T21:35:48.045Z,15.45
2023-05-01T21:38:17.499Z,15.65
2023-05-01T21:40:46.277Z,15.62
2023-05-01T21:43:14.042Z,15.53
2023-05-01T21:45:44.757Z,15.73
2023-05-01T21:48:15.880Z,15.53
2023-05-01T21:50:43.715Z,15.53
2023-05-01T21:53:11.452Z,15.30
2023-05-01T21:55:40.553Z,15.12
2023-05-01T21:58:08.262Z,15.16
2023-05-01T22:00:36.057Z,15.12
2023-05-01T22:03:07.669Z,15.17
2023-05-01T22:05:35.723Z,15.25
2023-05-01T22:08:03.461Z,15.15
2023-05-01T22:10:31.602Z,15.16
2023-05-01T22:13:00.730Z,15.11
2023-05-01T22:15:28.643Z,15.12
2023-05-01T22:17:57.256Z,15.38
2023-05-01T22:20:25.053Z,15.39
2023-05-01T22:22:52.809Z,15.54
2023-05-01T22:25:20.804Z,15.54
2023-05-01T22:27:48.523Z,15.50
2023-05-01T22:30:17.649Z,15.13
2023-05-01T22:32:45.433Z,15.29
2023-05-01T22:35:13.235Z,15.28
2023-05-01T22:37:40.964Z,15.56
2023-05-01T22:40:09.674Z,15.63
2023-05-01T22:42:37.429Z,15.10
2023-05-01T22:45:05.953Z,15.11
2023-05-01T22:47:35.254Z,15.17
2023-05-01T22:50:03.278Z,15.31
2023-05-01T22:52:31.332Z,15.13
2023-05-01T22:54:59.068Z,14.99
2023-05-01T22:57:26.809Z,14.91
2023-05-01T22:59:54.775Z,14.88
2023-05-01T23:02:22.560Z,15.02
2023-05-01T23:04:52.232Z,15.00
2023-05-01T23:07:19.996Z,14.87
2023-05-01T23:09:47.705Z,14.97
2023-05-01T23:12:19.572Z,14.95
2023-05-01T23:14:47.861Z,14.96
2023-05-01T23:17:16.154Z,14.93
2023-05-01T23:19:44.462Z,14.67
2023-05-01T23:22:13.893Z,14.74
2023-05-01T23:24:44.209Z,14.79
2023-05-01T23:27:13.464Z,14.77
2023-05-01T23:29:42.011Z,14.77
2023-05-01T23:32:16.876Z,14.73
2023-05-01T23:34:44.643Z,14.72
2023-05-01T23:37:13.757Z,14.80
2023-05-01T23:39:41.480Z,14.45
2023-05-01T23:42:09.301Z,14.38
2023-05-01T23:44:37.058Z,14.42
2023-05-01T23:47:05.040Z,14.21
2023-05-01T23:49:32.992Z,14.44
2023-05-01T23:52:00.724Z,13.99
2023-05-01T23:54:29.828Z,14.13
2023-05-01T23:56:57.749Z,13.94
2023-05-01T23:59:25.474Z,14.13
